createdAt,value
2022-07-29T00:00:22.575Z,58
2022-07-29T00:05:27.940Z,60
2022-07-29T00:10:16.901Z,59
2022-07-29T00:15:23.218Z,59
2022-07-29T00:20:29.457Z,58
2022-07-29T00:25:18.111Z,59
2022-07-29T00:30:24.418Z,59
2022-07-29T00:35:30.351Z,59
2022-07-29T00:40:23.501Z,60
2022-07-29T00:45:25.162Z,61
2022-07-29T00:50:31.077Z,60
2022-07-29T00:55:20.185Z,60
2022-07-29T01:00:26.450Z,60
2022-07-29T01:05:50.458Z,60
2022-07-29T01:10:20.732Z,60
2022-07-29T01:15:26.708Z,60
2022-07-29T01:20:33.069Z,61
2022-07-29T01:25:23.298Z,62
2022-07-29T01:30:27.949Z,62
2022-07-29T01:35:16.980Z,61
2022-07-29T01:40:22.982Z,61
2022-07-29T01:45:29.215Z,61
2022-07-29T01:50:18.391Z,62
2022-07-29T01:55:24.182Z,61
2022-07-29T02:00:30.202Z,61
2022-07-29T02:05:18.716Z,62
2022-07-29T02:10:25.900Z,62
2022-07-29T02:15:31.158Z,62
2022-07-29T02:20:20.082Z,62
2022-07-29T02:25:25.898Z,61
2022-07-29T02:30:32.532Z,59
2022-07-29T02:35:21.111Z,59
2022-07-29T02:40:27.015Z,57
2022-07-29T02:45:32.836Z,56
2022-07-29T02:50:21.776Z,54
2022-07-29T02:55:27.856Z,52
2022-07-29T03:00:16.943Z,52
2022-07-29T03:05:22.377Z,52
2022-07-29T03:10:28.415Z,53
2022-07-29T03:15:17.498Z,54
2022-07-29T03:20:23.627Z,55
2022-07-29T03:25:29.714Z,53
2022-07-29T03:30:21.694Z,56
2022-07-29T03:35:24.661Z,57
2022-07-29T03:40:30.658Z,56
2022-07-29T03:45:19.481Z,55
2022-07-29T03:50:25.742Z,56
2022-07-29T03:55:31.960Z,56
2022-07-29T04:00:20.963Z,55
2022-07-29T04:05:26.286Z,54
2022-07-29T04:10:34.154Z,53
2022-07-29T04:15:21.363Z,55
2022-07-29T04:20:27.441Z,56
2022-07-29T04:25:16.516Z,56
2022-07-29T04:30:23.709Z,55
2022-07-29T04:35:28.519Z,55
2022-07-29T04:40:18.705Z,57
2022-07-29T04:45:23.336Z,57
2022-07-29T04:50:30.755Z,58
2022-07-29T04:55:18.573Z,59
2022-07-29T05:00:29.194Z,61
2022-07-29T05:05:30.968Z,59
2022-07-29T05:10:20.052Z,57
2022-07-29T05:15:26.347Z,54
2022-07-29T05:20:32.387Z,53
2022-07-29T05:25:21.241Z,54
2022-07-29T05:30:27.203Z,58
2022-07-29T05:35:17.497Z,57
2022-07-29T05:40:25.165Z,57
2022-07-29T05:45:28.345Z,58
2022-07-29T05:50:17.178Z,57
2022-07-29T05:55:23.220Z,53
2022-07-29T06:00:29.536Z,54
2022-07-29T06:05:18.941Z,56
2022-07-29T06:10:26.270Z,55
2022-07-29T06:15:31.307Z,55
2022-07-29T06:20:20.380Z,54
2022-07-29T06:25:26.368Z,53
2022-07-29T06:30:32.327Z,53
2022-07-29T06:35:39.278Z,53
2022-07-29T06:40:27.458Z,53
2022-07-29T06:45:33.208Z,52
2022-07-29T06:50:22.114Z,51
2022-07-29T06:55:28.229Z,51
2022-07-29T07:00:17.213Z,51
2022-07-29T07:05:22.692Z,51
2022-07-29T07:10:28.791Z,51
2022-07-29T07:15:17.739Z,51
2022-07-29T07:20:23.857Z,51
2022-07-29T07:25:29.932Z,52
2022-07-29T07:30:18.895Z,52
2022-07-29T07:35:25.194Z,52
2022-07-29T07:40:31.583Z,51
2022-07-29T07:45:19.779Z,51
2022-07-29T07:50:25.973Z,51
2022-07-29T07:55:53.500Z,51
2022-07-29T08:00:23.678Z,51
2022-07-29T08:05:27.246Z,51
2022-07-29T08:10:33.033Z,50
2022-07-29T08:15:21.915Z,50
2022-07-29T08:20:28.045Z,48
2022-07-29T08:25:17.189Z,48
2022-07-29T08:30:23.205Z,46
2022-07-29T08:35:34.790Z,47
2022-07-29T08:40:18.268Z,46
2022-07-29T08:45:24.573Z,46
2022-07-29T08:50:29.677Z,46
2022-07-29T08:55:21.248Z,46
2022-07-29T09:00:24.842Z,45
2022-07-29T09:05:30.142Z,45
2022-07-29T09:10:19.267Z,46
2022-07-29T09:15:25.147Z,47
2022-07-29T09:20:31.168Z,47
2022-07-29T09:25:20.274Z,47
2022-07-29T09:30:31.334Z,46
2022-07-29T09:35:32.480Z,46
2022-07-29T09:40:21.397Z,45
2022-07-29T09:45:27.609Z,45
2022-07-29T09:50:16.454Z,47
2022-07-29T09:55:22.638Z,49
2022-07-29T10:00:29.137Z,48
2022-07-29T10:05:17.256Z,48
2022-07-29T10:10:23.166Z,49
2022-07-29T10:15:29.385Z,49
2022-07-29T10:20:18.551Z,47
2022-07-29T10:25:24.632Z,46
2022-07-29T10:30:30.484Z,46
2022-07-29T10:35:19.451Z,47
2022-07-29T10:40:25.595Z,48
2022-07-29T10:45:31.465Z,47
2022-07-29T10:50:20.256Z,47
2022-07-29T10:55:26.366Z,47
2022-07-29T11:00:33.459Z,46
2022-07-29T11:05:21.970Z,45
2022-07-29T11:10:31.339Z,44
2022-07-29T11:15:17.034Z,44
2022-07-29T11:20:23.148Z,43
2022-07-29T11:25:50.099Z,42
2022-07-29T11:30:18.088Z,42
2022-07-29T11:35:36.997Z,42
2022-07-29T11:40:30.602Z,41
2022-07-29T11:45:41.325Z,41
2022-07-29T11:50:26.924Z,40
2022-07-29T11:55:32.613Z,39
2022-07-29T12:00:20.332Z,38
2022-07-29T12:05:36.371Z,37
2022-07-29T12:10:31.787Z,37
2022-07-29T12:15:21.233Z,37
2022-07-29T12:20:26.915Z,37
2022-07-29T12:25:33.901Z,37
2022-07-29T12:30:21.952Z,37
2022-07-29T12:35:28.259Z,37
2022-07-29T12:40:17.956Z,37
2022-07-29T12:45:22.882Z,37
2022-07-29T12:50:28.932Z,36
2022-07-29T12:55:17.958Z,36
2022-07-29T13:00:23.997Z,35
2022-07-29T13:05:29.735Z,36
2022-07-29T13:10:18.563Z,37
2022-07-29T13:15:24.655Z,37
2022-07-29T13:20:30.699Z,37
2022-07-29T13:25:19.708Z,37
2022-07-29T13:30:25.822Z,37
2022-07-29T13:35:33.267Z,38
2022-07-29T13:40:21.007Z,38
2022-07-29T13:45:26.565Z,38
2022-07-29T13:50:32.552Z,38
2022-07-29T13:55:21.616Z,39
2022-07-29T14:00:27.637Z,38
2022-07-29T14:05:16.588Z,39
2022-07-29T14:10:22.179Z,40
2022-07-29T14:15:28.236Z,41
2022-07-29T14:20:17.361Z,44
2022-07-29T14:25:23.624Z,46
2022-07-29T14:30:29.477Z,46
2022-07-29T14:35:18.412Z,50
2022-07-29T14:40:24.509Z,56
2022-07-29T14:45:30.758Z,68
2022-07-29T14:50:23.359Z,78
2022-07-29T14:55:25.857Z,79
2022-07-29T15:00:31.814Z,81
2022-07-29T15:05:20.408Z,82
2022-07-29T15:10:26.540Z,83
2022-07-29T15:15:34.897Z,84
2022-07-29T15:20:21.782Z,85
2022-07-29T15:25:27.991Z,84
2022-07-29T15:30:31.595Z,83
2022-07-29T15:35:23.109Z,82
2022-07-29T15:40:28.899Z,82
2022-07-29T15:45:17.858Z,82
2022-07-29T15:50:24.112Z,81
2022-07-29T15:55:30.200Z,82
2022-07-29T16:00:19.126Z,82
2022-07-29T16:05:24.589Z,82
2022-07-29T16:10:30.951Z,83
2022-07-29T16:15:19.658Z,83
2022-07-29T16:20:25.645Z,82
2022-07-29T16:25:57.618Z,82
2022-07-29T16:30:20.912Z,82
2022-07-29T16:35:39.880Z,82
2022-07-29T16:40:33.594Z,82
2022-07-29T16:45:21.703Z,82
2022-07-29T16:50:27.882Z,81
2022-07-29T16:55:16.834Z,81
2022-07-29T17:00:22.967Z,82
2022-07-29T17:05:28.628Z,82
2022-07-29T17:10:17.666Z,80
2022-07-29T17:15:23.723Z,80
2022-07-29T17:20:29.676Z,81
2022-07-29T17:25:20.773Z,82
2022-07-29T17:30:24.684Z,83
2022-07-29T17:35:30.724Z,84
2022-07-29T17:40:19.846Z,86
2022-07-29T17:45:25.610Z,87
2022-07-29T17:50:31.759Z,88
2022-07-29T17:55:20.641Z,88
2022-07-29T18:00:26.846Z,88
2022-07-29T18:05:32.954Z,88
2022-07-29T18:10:21.426Z,89
2022-07-29T18:15:27.463Z,89
2022-07-29T18:20:16.559Z,89
2022-07-29T18:25:22.844Z,89
2022-07-29T18:30:28.698Z,89
2022-07-29T18:35:17.682Z,89
2022-07-29T18:40:23.910Z,89
2022-07-29T18:45:29.672Z,89
2022-07-29T18:50:19.780Z,89
2022-07-29T18:55:24.873Z,89
2022-07-29T19:00:30.891Z,89
2022-07-29T19:05:19.377Z,90
2022-07-29T19:10:25.541Z,90
2022-07-29T19:15:31.412Z,90
2022-07-29T19:20:20.487Z,90
2022-07-29T19:25:26.453Z,90
2022-07-29T19:30:32.566Z,90
2022-07-29T19:35:21.596Z,90
2022-07-29T19:40:27.719Z,90
2022-07-29T19:45:16.647Z,90
2022-07-29T19:50:22.576Z,90
2022-07-29T19:55:28.729Z,90
2022-07-29T20:00:17.924Z,90
2022-07-29T20:05:27.870Z,90
2022-07-29T20:10:29.329Z,90
2022-07-29T20:15:18.354Z,90
2022-07-29T20:20:24.491Z,91
2022-07-29T20:25:30.548Z,91
2022-07-29T20:30:19.486Z,91
2022-07-29T20:35:25.535Z,91
2022-07-29T20:40:31.629Z,91
2022-07-29T20:45:20.277Z,91
2022-07-29T20:50:26.340Z,91
2022-07-29T20:55:32.742Z,91
2022-07-29T21:00:21.610Z,91
2022-07-29T21:05:27.876Z,91
2022-07-29T21:10:17.010Z,91
2022-07-29T21:15:23.045Z,91
2022-07-29T21:20:29.193Z,91
2022-07-29T21:25:18.286Z,91
2022-07-29T21:30:24.177Z,91
2022-07-29T21:36:06.162Z,91
2022-07-29T21:40:19.288Z,91
2022-07-29T21:45:25.087Z,91
2022-07-29T21:50:24.226Z,91
2022-07-29T21:55:20.579Z,91
2022-07-29T22:00:26.714Z,91
2022-07-29T22:05:31.850Z,91
2022-07-29T22:10:20.762Z,91
2022-07-29T22:15:26.809Z,91
2022-07-29T22:20:32.877Z,91
2022-07-29T22:25:21.905Z,91
2022-07-29T22:30:27.979Z,91
2022-07-29T22:35:16.987Z,91
2022-07-29T22:40:30.735Z,91
2022-07-29T22:45:28.970Z,91
2022-07-29T22:50:17.803Z,91
2022-07-29T22:55:24.107Z,91
2022-07-29T23:00:31.641Z,91
2022-07-29T23:05:18.415Z,91
2022-07-29T23:10:31.509Z,91
2022-07-29T23:15:31.006Z,91
2022-07-29T23:20:19.604Z,91
2022-07-29T23:25:25.762Z,92
2022-07-29T23:30:32.634Z,92
2022-07-29T23:35:21.086Z,92
2022-07-29T23:40:28.931Z,92
2022-07-29T23:45:42.576Z,92
2022-07-29T23:50:21.098Z,92
2022-07-29T23:55:37.168Z,92
